Time;durP1;ratioP1;P1;durP2;ratioP2;P2;SDS_P1;SDS_P2;PMS_P1;PMS_P2;Temp;Humidity;BMP_temperature;BMP_pressure;BME280_temperature;BME280_humidity;BME280_pressure;Samples;Min_cycle;Max_cycle;Signal;HPM_P1;HPM_P2
2023/09/07 00:01:33;;;;;;;14.93;13.85;;;;;;;18.85;100.00;95402.47;5010912;28;20267;-88
2023/09/07 00:03:59;;;;;;;16.88;15.32;;;;;;;18.81;100.00;95401.28;5028330;28;20128;-89
2023/09/07 00:06:25;;;;;;;15.90;14.25;;;;;;;18.82;100.00;95400.25;5010029;28;20384;-89
2023/09/07 00:08:51;;;;;;;16.83;15.23;;;;;;;18.83;100.00;95412.38;5028871;28;20030;-89
2023/09/07 00:11:16;;;;;;;16.73;15.23;;;;;;;18.73;100.00;95418.09;5009299;28;20029;-89
2023/09/07 00:13:41;;;;;;;17.55;15.55;;;;;;;18.74;100.00;95416.25;5011127;28;20025;-90
2023/09/07 00:16:08;;;;;;;16.38;14.77;;;;;;;18.71;100.00;95421.94;5026901;28;20036;-89
2023/09/07 00:18:34;;;;;;;17.05;15.40;;;;;;;18.72;100.00;95428.81;5028498;28;20045;-89
2023/09/07 00:21:00;;;;;;;18.55;16.02;;;;;;;18.72;100.00;95423.56;5010159;28;20053;-89
2023/09/07 00:23:25;;;;;;;17.55;15.88;;;;;;;18.71;100.00;95421.94;5027608;28;20044;-89
2023/09/07 00:25:51;;;;;;;16.58;14.93;;;;;;;18.73;100.00;95423.31;5011001;28;20558;-89
2023/09/07 00:28:16;;;;;;;17.45;15.77;;;;;;;18.76;100.00;95414.22;5026947;28;20033;-90
2023/09/07 00:30:42;;;;;;;16.85;15.27;;;;;;;18.65;100.00;95426.22;5010781;28;20030;-90
2023/09/07 00:33:07;;;;;;;17.92;16.48;;;;;;;18.71;100.00;95433.25;5010050;28;20223;-90
2023/09/07 00:35:33;;;;;;;17.70;15.95;;;;;;;18.73;100.00;95430.41;5010704;28;20083;-90
2023/09/07 00:37:58;;;;;;;16.65;15.10;;;;;;;18.71;100.00;95435.06;5009686;28;20108;-89
2023/09/07 00:40:25;;;;;;;17.17;15.73;;;;;;;18.76;100.00;95436.03;5010698;28;20037;-90
2023/09/07 00:42:50;;;;;;;17.10;15.48;;;;;;;18.76;100.00;95414.22;5010662;28;20030;-93
2023/09/07 00:45:16;;;;;;;16.92;15.70;;;;;;;18.73;100.00;95412.03;5009632;28;20104;-90
2023/09/07 00:47:41;;;;;;;17.65;15.88;;;;;;;18.65;100.00;95420.16;5011234;28;20041;-91
2023/09/07 00:50:07;;;;;;;18.80;17.13;;;;;;;18.65;100.00;95423.59;5027159;28;20022;-90
2023/09/07 00:52:34;;;;;;;17.02;15.35;;;;;;;18.64;100.00;95434.28;5010900;28;20040;-92
2023/09/07 00:55:04;;;;;;;20.65;18.77;;;;;;;18.61;100.00;95442.56;5009329;28;20030;-90
2023/09/07 00:57:29;;;;;;;18.25;16.70;;;;;;;18.52;100.00;95465.63;5011073;28;20487;-91
2023/09/07 00:59:55;;;;;;;18.85;17.15;;;;;;;18.51;100.00;95461.38;5009831;28;20029;-89
2023/09/07 01:02:20;;;;;;;17.48;15.88;;;;;;;18.57;100.00;95478.09;5009662;28;20088;-89
2023/09/07 01:04:46;;;;;;;18.83;17.23;;;;;;;18.51;100.00;95484.16;5028307;28;20029;-88
2023/09/07 01:07:26;;;;;;;18.17;16.40;;;;;;;18.55;100.00;95467.00;5027123;28;20048;-88
2023/09/07 01:09:54;;;;;;;18.83;16.98;;;;;;;18.57;100.00;95475.47;5010947;28;20025;-90
2023/09/07 01:12:20;;;;;;;18.63;16.90;;;;;;;18.50;100.00;95477.31;5009447;28;20033;-89
2023/09/07 01:14:46;;;;;;;19.13;17.30;;;;;;;18.51;100.00;95474.50;5027990;28;20490;-88
2023/09/07 01:17:11;;;;;;;17.58;16.05;;;;;;;18.52;100.00;95476.09;5010205;28;20040;-88
2023/09/07 01:19:37;;;;;;;19.27;17.35;;;;;;;18.50;100.00;95487.78;5009706;28;20046;-89
2023/09/07 01:22:03;;;;;;;19.63;17.80;;;;;;;18.51;100.00;95497.28;5028181;28;20033;-90
2023/09/07 01:24:31;;;;;;;20.23;18.08;;;;;;;18.52;100.00;95510.22;5009106;28;20064;-90
2023/09/07 01:26:57;;;;;;;19.70;17.93;;;;;;;18.48;100.00;95516.84;5028457;28;20025;-90
2023/09/07 01:29:23;;;;;;;19.90;17.85;;;;;;;18.43;100.00;95520.06;5009565;28;20084;-89
2023/09/07 01:31:48;;;;;;;18.77;17.17;;;;;;;18.43;100.00;95520.06;5014337;28;20033;-90
2023/09/07 01:34:14;;;;;;;20.85;18.73;;;;;;;18.33;100.00;95538.03;4996463;28;20029;-92
2023/09/07 01:36:40;;;;;;;18.98;17.23;;;;;;;18.27;100.00;95549.34;5014149;28;20036;-91
2023/09/07 01:39:08;;;;;;;19.30;17.38;;;;;;;18.21;100.00;95563.28;4997613;28;20029;-91
2023/09/07 01:41:34;;;;;;;20.70;18.77;;;;;;;18.20;100.00;95566.94;4996732;28;20026;-90
2023/09/07 01:43:59;;;;;;;22.98;20.98;;;;;;;18.25;100.00;95559.25;4997951;28;20036;-92
2023/09/07 01:46:25;;;;;;;22.95;20.83;;;;;;;18.26;100.00;95560.88;5030474;28;20034;-91
2023/09/07 01:48:50;;;;;;;22.70;20.63;;;;;;;18.25;100.00;95564.50;4997438;28;20044;-89
2023/09/07 01:51:16;;;;;;;22.90;20.13;;;;;;;18.26;100.00;95563.50;4996034;28;20044;-91
2023/09/07 01:53:41;;;;;;;22.05;20.13;;;;;;;18.21;100.00;95565.91;5014369;28;20438;-91
2023/09/07 01:56:06;;;;;;;21.77;19.85;;;;;;;18.19;100.00;95570.56;5013032;28;20502;-91
2023/09/07 01:58:33;;;;;;;22.02;20.13;;;;;;;18.19;100.00;95575.78;5013468;28;20562;-90
2023/09/07 02:00:59;;;;;;;22.35;19.98;;;;;;;18.20;100.00;95572.19;4996949;28;20036;-90
2023/09/07 02:03:25;;;;;;;21.40;19.27;;;;;;;18.15;100.00;95582.44;5012308;28;20030;-90
2023/09/07 02:05:50;;;;;;;21.15;19.40;;;;;;;18.20;100.00;95579.22;5013630;28;20025;-90
2023/09/07 02:08:16;;;;;;;21.10;19.30;;;;;;;18.26;100.00;95587.09;5012216;28;20052;-89
2023/09/07 02:10:41;;;;;;;22.08;20.08;;;;;;;18.22;100.00;95590.31;5013310;28;20021;-89
2023/09/07 02:13:07;;;;;;;24.85;22.38;;;;;;;18.19;100.00;95588.91;5011670;28;20060;-89
2023/09/07 02:15:33;;;;;;;25.60;23.02;;;;;;;18.11;100.00;95598.81;5013084;28;20025;-89
2023/09/07 02:17:58;;;;;;;23.10;21.00;;;;;;;18.09;100.00;95606.84;5013057;28;20584;-89
2023/09/07 02:20:24;;;;;;;21.85;19.85;;;;;;;18.06;100.00;95614.31;5012145;28;20574;-90
2023/09/07 02:22:50;;;;;;;20.35;18.17;;;;;;;18.02;100.00;95626.19;5013216;28;20074;-92
2023/09/07 02:25:15;;;;;;;20.83;18.70;;;;;;;17.96;100.00;95632.25;5011569;28;20436;-90
2023/09/07 02:27:40;;;;;;;22.90;20.70;;;;;;;17.94;100.00;95634.25;4997222;28;20076;-90
2023/09/07 02:30:07;;;;;;;24.55;22.33;;;;;;;17.94;100.00;95642.13;5029150;28;20435;-89
2023/09/07 02:32:32;;;;;;;25.63;23.30;;;;;;;17.87;100.00;95653.41;5012821;28;20033;-87
2023/09/07 02:34:58;;;;;;;24.30;22.20;;;;;;;17.86;100.00;95661.44;5028893;28;20147;-86
2023/09/07 02:37:23;;;;;;;25.55;23.35;;;;;;;17.87;100.00;95668.31;4995532;28;20033;-85
2023/09/07 02:39:49;;;;;;;22.88;20.65;;;;;;;17.85;100.00;95680.84;5011383;28;20033;-83
2023/09/07 02:42:14;;;;;;;25.33;22.48;;;;;;;17.82;100.00;95707.41;5028323;28;20041;-82
2023/09/07 02:44:40;;;;;;;25.90;23.48;;;;;;;17.88;100.00;95725.78;4995771;28;20040;-82
2023/09/07 02:47:05;;;;;;;24.33;22.08;;;;;;;17.86;100.00;95732.22;5010217;28;20032;-83
2023/09/07 02:49:30;;;;;;;26.13;23.77;;;;;;;17.83;100.00;95738.66;5012009;28;20021;-83
2023/09/07 02:51:56;;;;;;;26.90;24.70;;;;;;;17.85;100.00;95770.72;5028474;28;20033;-83
2023/09/07 02:54:22;;;;;;;28.13;25.50;;;;;;;17.79;100.00;95768.88;5011801;28;20487;-82
2023/09/07 02:56:48;;;;;;;28.80;25.88;;;;;;;17.82;100.00;95768.50;5011263;28;20029;-83
2023/09/07 02:59:14;;;;;;;26.02;23.60;;;;;;;17.72;100.00;95770.66;4994371;28;20014;-83
2023/09/07 03:01:39;;;;;;;28.42;25.85;;;;;;;17.73;100.00;95767.03;4996272;28;20407;-83
2023/09/07 03:04:05;;;;;;;28.35;25.95;;;;;;;17.72;100.00;95769.88;5010052;28;20116;-83
2023/09/07 03:06:31;;;;;;;37.67;34.20;;;;;;;17.70;100.00;95779.72;5012057;28;20029;-83
2023/09/07 03:08:56;;;;;;;30.27;27.70;;;;;;;17.51;100.00;95791.69;5009470;28;20044;-83
2023/09/07 03:11:22;;;;;;;31.70;28.75;;;;;;;17.45;100.00;95797.69;5029667;28;20018;-83
2023/09/07 03:13:48;;;;;;;31.15;28.10;;;;;;;17.62;100.00;95806.91;5010337;28;20087;-83
2023/09/07 03:16:13;;;;;;;33.67;30.40;;;;;;;17.63;100.00;95805.06;5028830;28;20033;-83
2023/09/07 03:18:38;;;;;;;32.17;29.00;;;;;;;17.64;100.00;95806.72;5028617;28;20181;-81
2023/09/07 03:21:04;;;;;;;31.77;28.65;;;;;;;17.59;100.00;95809.09;5010333;28;20022;-82
2023/09/07 03:23:30;;;;;;;29.95;27.10;;;;;;;17.60;100.00;95813.31;4994845;28;20033;-83
2023/09/07 03:25:57;;;;;;;33.50;30.38;;;;;;;17.65;100.00;95803.91;5009709;28;20527;-83
2023/09/07 03:28:22;;;;;;;33.90;30.80;;;;;;;17.61;100.00;95805.28;5011679;28;20051;-83
2023/09/07 03:30:48;;;;;;;36.47;32.85;;;;;;;17.64;100.00;95802.28;4993551;28;20025;-83
2023/09/07 03:33:13;;;;;;;41.38;37.55;;;;;;;17.56;100.00;95804.25;5011217;28;20458;-83
2023/09/07 03:35:40;;;;;;;34.25;31.13;;;;;;;17.57;100.00;95809.28;5027618;28;20057;-83
2023/09/07 03:38:06;;;;;;;34.80;31.23;;;;;;;17.58;100.00;95807.47;4994207;28;20026;-83
2023/09/07 03:40:31;;;;;;;34.15;30.90;;;;;;;17.53;100.00;95804.59;5010951;28;20028;-83
2023/09/07 03:42:56;;;;;;;39.20;35.50;;;;;;;17.53;100.00;95805.41;5009863;28;20052;-83
2023/09/07 03:45:22;;;;;;;34.78;31.33;;;;;;;17.51;100.00;95810.03;5028256;28;20025;-83
2023/09/07 03:47:47;;;;;;;39.25;35.47;;;;;;;17.46;100.00;95824.72;5009886;28;20531;-83
2023/09/07 03:50:13;;;;;;;34.75;31.52;;;;;;;17.53;100.00;95825.56;5028652;28;20146;-83
2023/09/07 03:52:38;;;;;;;33.92;30.92;;;;;;;17.47;100.00;95834.16;4992298;28;20485;-82
2023/09/07 03:55:04;;;;;;;35.60;32.10;;;;;;;17.50;100.00;95855.56;5010437;28;20037;-82
2023/09/07 03:57:29;;;;;;;45.25;40.75;;;;;;;17.46;100.00;95846.47;5009957;28;20033;-83
2023/09/07 03:59:56;;;;;;;44.30;39.70;;;;;;;17.40;100.00;95842.78;4993791;28;20406;-83
2023/09/07 04:02:22;;;;;;;37.20;33.92;;;;;;;17.46;100.00;95850.91;5010701;28;20037;-83
2023/09/07 04:04:49;;;;;;;40.85;37.05;;;;;;;17.43;100.00;95848.66;5009206;28;20022;-83
2023/09/07 04:07:14;;;;;;;40.85;36.92;;;;;;;17.47;100.00;95849.88;4994287;28;20422;-83
2023/09/07 04:09:40;;;;;;;39.35;35.72;;;;;;;17.55;100.00;95852.38;5027035;28;20029;-83
2023/09/07 04:12:06;;;;;;;36.47;32.90;;;;;;;17.51;100.00;95838.03;5010526;28;20029;-83
2023/09/07 04:14:32;;;;;;;44.47;39.92;;;;;;;17.57;100.00;95825.00;4993249;28;20025;-83
2023/09/07 04:16:58;;;;;;;44.50;40.00;;;;;;;17.49;100.00;95827.75;4993856;28;20040;-83
2023/09/07 04:19:23;;;;;;;38.38;34.65;;;;;;;17.53;100.00;95834.22;5027619;28;20072;-84
2023/09/07 04:21:48;;;;;;;38.25;34.70;;;;;;;17.52;100.00;95830.00;5009096;28;20033;-85
2023/09/07 04:24:14;;;;;;;46.85;42.38;;;;;;;17.53;100.00;95836.03;5028189;28;20079;-83
2023/09/07 04:26:39;;;;;;;38.67;34.95;;;;;;;17.57;100.00;95838.09;4992722;28;20567;-84
2023/09/07 04:29:07;;;;;;;36.47;33.00;;;;;;;17.59;100.00;95835.31;5010453;28;20517;-84
2023/09/07 04:31:32;;;;;;;35.95;32.40;;;;;;;17.68;100.00;95821.03;5008626;28;20462;-84
2023/09/07 04:33:57;;;;;;;37.83;34.05;;;;;;;17.77;100.00;95804.16;5010554;28;20029;-84
2023/09/07 04:36:23;;;;;;;37.38;33.55;;;;;;;17.76;100.00;95792.88;5026840;28;20061;-83
2023/09/07 04:38:48;;;;;;;37.80;34.08;;;;;;;17.99;100.00;95782.09;5026845;28;20495;-84
2023/09/07 04:41:14;;;;;;;35.63;32.05;;;;;;;18.06;100.00;95761.13;5010320;28;20032;-83
2023/09/07 04:43:43;;;;;;;35.50;32.05;;;;;;;18.17;100.00;95763.19;5008658;28;20108;-83
2023/09/07 04:46:09;;;;;;;30.23;27.73;;;;;;;18.99;100.00;95703.34;4994326;28;20410;-83
2023/09/07 04:48:34;;;;;;;29.88;27.30;;;;;;;18.98;100.00;95636.06;4991721;28;20586;-83
2023/09/07 04:51:00;;;;;;;32.25;29.20;;;;;;;18.68;100.00;95651.50;4994026;28;20061;-83
2023/09/07 04:53:28;;;;;;;29.08;26.27;;;;;;;19.19;100.00;95656.84;5009000;28;20033;-83
2023/09/07 04:55:53;;;;;;;29.15;26.33;;;;;;;20.51;100.00;95504.34;5027736;28;20040;-82
2023/09/07 04:58:18;;;;;;;27.70;25.48;;;;;;;20.22;100.00;95462.91;5009799;28;20034;-82
2023/09/07 05:00:44;;;;;;;24.60;22.40;;;;;;;19.82;100.00;95517.66;4992354;28;20025;-82
2023/09/07 05:03:09;;;;;;;23.15;21.20;;;;;;;19.61;100.00;95524.09;5027958;28;20372;-83
2023/09/07 05:05:35;;;;;;;24.10;21.67;;;;;;;19.96;100.00;95506.03;5028289;28;20088;-82
2023/09/07 05:08:00;;;;;;;23.60;21.25;;;;;;;20.80;100.00;95456.22;5032266;28;20056;-82
2023/09/07 05:10:27;;;;;;;23.77;21.77;;;;;;;20.64;100.00;95448.13;5012185;28;20033;-82
2023/09/07 05:12:52;;;;;;;21.95;19.92;;;;;;;20.17;100.00;95483.78;4997556;28;20508;-83
2023/09/07 05:15:17;;;;;;;21.60;19.88;;;;;;;20.38;100.00;95489.50;5031291;28;20026;-83
2023/09/07 05:17:43;;;;;;;20.75;18.98;;;;;;;21.06;100.00;95439.28;4996347;28;20033;-82
2023/09/07 05:20:09;;;;;;;19.65;17.98;;;;;;;20.64;100.00;95441.03;5031489;28;20462;-83
2023/09/07 05:22:37;;;;;;;20.05;18.17;;;;;;;20.38;100.00;95463.19;5012290;28;20024;-83
2023/09/07 05:25:03;;;;;;;21.97;19.97;;;;;;;20.42;100.00;95471.44;5031649;28;20037;-84
2023/09/07 05:27:28;;;;;;;19.95;18.05;;;;;;;20.57;100.00;95455.28;4995764;28;20040;-85
2023/09/07 05:29:54;;;;;;;20.40;18.30;;;;;;;20.47;100.00;95461.06;5013213;28;20079;-85
2023/09/07 05:32:19;;;;;;;20.30;18.60;;;;;;;20.25;100.00;95479.06;5030048;28;20044;-84
2023/09/07 05:34:44;;;;;;;21.45;19.75;;;;;;;20.57;100.00;95477.16;5012529;28;20543;-85
2023/09/07 05:37:10;;;;;;;21.77;19.45;;;;;;;20.39;100.00;95462.13;5030863;28;20030;-85
2023/09/07 05:39:35;;;;;;;20.80;18.98;;;;;;;20.51;100.00;95441.19;5029811;28;20592;-84
2023/09/07 05:42:00;;;;;;;20.25;18.52;;;;;;;20.61;100.00;95453.81;4997043;28;20084;-84
2023/09/07 05:44:26;;;;;;;18.52;16.77;;;;;;;22.76;100.00;95398.69;5011783;28;20036;-85
2023/09/07 05:46:51;;;;;;;16.60;15.18;;;;;;;24.64;100.00;95329.88;4996626;28;20029;-85
2023/09/07 05:49:17;;;;;;;16.05;14.65;;;;;;;24.41;100.00;95318.75;4995327;28;20473;-85
2023/09/07 05:51:42;;;;;;;16.27;14.68;;;;;;;23.99;100.00;95326.38;5030804;28;20033;-85
2023/09/07 05:54:07;;;;;;;14.52;13.60;;;;;;;25.58;100.00;95319.66;5012341;28;20022;-85
2023/09/07 05:56:34;;;;;;;14.55;13.25;;;;;;;27.40;100.00;95303.53;5030963;28;20560;-86
2023/09/07 05:58:59;;;;;;;12.85;11.63;;;;;;;26.84;100.00;95313.38;4996579;28;20033;-86
2023/09/07 06:01:25;;;;;;;13.95;10.80;;;;;;;28.63;92.19;95314.47;5012017;28;20083;-86
2023/09/07 06:03:50;;;;;;;12.52;11.35;;;;;;;27.61;99.44;95313.16;5012738;28;20037;-85
2023/09/07 06:06:15;;;;;;;11.45;10.55;;;;;;;27.15;100.00;95307.81;4995017;28;20128;-86
2023/09/07 06:08:41;;;;;;;12.50;11.40;;;;;;;27.12;100.00;95308.34;5030685;28;20035;-86
2023/09/07 06:11:06;;;;;;;12.88;10.00;;;;;;;26.44;100.00;95316.66;4995491;28;20025;-87
2023/09/07 06:13:32;;;;;;;9.40;8.80;;;;;;;26.68;100.00;95315.94;5030629;28;20055;-86
2023/09/07 06:15:58;;;;;;;11.05;8.82;;;;;;;26.24;100.00;95317.38;5011169;28;20473;-86
2023/09/07 06:18:24;;;;;;;9.77;8.80;;;;;;;27.40;100.00;95320.31;5012750;28;20402;-87
2023/09/07 06:20:49;;;;;;;9.18;8.48;;;;;;;28.73;93.07;95320.59;5012569;28;20049;-87
2023/09/07 06:23:15;;;;;;;8.93;8.10;;;;;;;30.31;78.06;95323.59;5011750;28;20036;-88
2023/09/07 06:25:40;;;;;;;8.35;7.20;;;;;;;32.02;69.62;95314.09;5013040;28;20684;-88
2023/09/07 06:28:06;;;;;;;7.90;7.33;;;;;;;32.81;64.64;95321.72;4995624;28;20061;-89
2023/09/07 06:30:31;;;;;;;7.37;6.73;;;;;;;33.27;61.49;95316.09;5013419;28;20043;-88
2023/09/07 06:32:57;;;;;;;7.47;6.80;;;;;;;32.59;56.89;95320.84;5011423;28;20029;-87
2023/09/07 06:35:22;;;;;;;7.60;6.77;;;;;;;33.17;57.26;95313.66;5012568;28;20048;-88
2023/09/07 06:37:47;;;;;;;7.53;6.83;;;;;;;31.28;58.78;95316.69;5012490;28;20025;-86
2023/09/07 06:40:15;;;;;;;8.07;7.32;;;;;;;31.02;63.09;95320.81;5029103;28;20083;-87
2023/09/07 06:42:40;;;;;;;10.60;7.85;;;;;;;29.17;69.73;95315.22;5012897;28;20026;-86
2023/09/07 06:45:07;;;;;;;8.48;7.88;;;;;;;30.39;65.28;95322.13;5011004;28;20056;-87
2023/09/07 06:47:32;;;;;;;9.20;8.60;;;;;;;28.38;75.20;95319.91;5012748;28;20025;-88
2023/09/07 06:49:58;;;;;;;10.80;8.55;;;;;;;26.31;87.02;95325.13;5010974;28;20018;-86
2023/09/07 06:52:23;;;;;;;9.82;9.02;;;;;;;25.50;99.24;95325.41;5012774;28;20021;-86
2023/09/07 06:54:53;;;;;;;10.80;9.20;;;;;;;26.06;92.72;95323.91;4994951;28;20029;-87
2023/09/07 06:57:18;;;;;;;9.63;8.65;;;;;;;25.78;93.08;95323.50;4995731;28;20426;-86
2023/09/07 06:59:44;;;;;;;10.48;9.70;;;;;;;26.64;93.47;95322.06;4996539;28;20021;-88
2023/09/07 07:02:09;;;;;;;10.90;9.80;;;;;;;26.36;89.04;95323.25;5010760;28;20033;-86
2023/09/07 07:04:35;;;;;;;10.43;9.73;;;;;;;26.63;90.59;95313.28;5030059;28;20056;-86
2023/09/07 07:07:05;;;;;;;10.52;9.18;;;;;;;26.12;92.74;95317.56;5010445;28;20037;-85
2023/09/07 07:09:30;;;;;;;10.13;9.30;;;;;;;24.96;97.57;95323.84;5029883;28;20025;-82
2023/09/07 07:11:57;;;;;;;12.63;10.27;;;;;;;24.56;100.00;95324.22;5010608;28;20052;-87
2023/09/07 07:14:23;;;;;;;12.70;9.77;;;;;;;24.60;99.85;95318.16;5011645;28;20025;-88
2023/09/07 07:16:48;;;;;;;11.35;10.45;;;;;;;24.50;100.00;95320.69;5011555;28;20041;-88
2023/09/07 07:19:14;;;;;;;11.63;10.60;;;;;;;25.62;95.88;95323.38;4993734;28;20595;-88
2023/09/07 07:21:39;;;;;;;10.68;9.93;;;;;;;25.38;96.63;95327.41;5011759;28;20057;-86
2023/09/07 07:24:07;;;;;;;10.45;9.43;;;;;;;25.86;91.80;95328.31;5009622;28;20090;-86
2023/09/07 07:26:32;;;;;;;11.07;10.07;;;;;;;25.60;93.79;95330.00;4995799;28;20544;-86
2023/09/07 07:28:58;;;;;;;10.88;9.88;;;;;;;25.00;96.50;95324.97;5027814;28;20026;-87
2023/09/07 07:31:23;;;;;;;10.93;9.93;;;;;;;25.50;97.00;95322.75;5011525;28;20064;-86
2023/09/07 07:33:49;;;;;;;11.32;10.20;;;;;;;25.10;94.54;95325.88;5010752;28;20045;-88
2023/09/07 07:36:14;;;;;;;10.43;9.30;;;;;;;26.30;89.75;95323.53;5027892;28;20037;-85
2023/09/07 07:38:40;;;;;;;9.55;8.93;;;;;;;26.75;89.61;95320.22;5011383;28;20076;-84
2023/09/07 07:41:05;;;;;;;9.73;8.45;;;;;;;26.77;88.16;95328.72;5009955;28;20018;-80
2023/09/07 07:43:32;;;;;;;9.30;8.57;;;;;;;26.10;87.22;95324.97;5010830;28;20075;-85
2023/09/07 07:45:57;;;;;;;9.98;8.10;;;;;;;26.11;90.00;95323.94;4993006;28;20025;-86
2023/09/07 07:48:23;;;;;;;9.02;8.13;;;;;;;25.97;89.60;95320.16;5010940;28;20533;-86
2023/09/07 07:50:48;;;;;;;9.00;7.65;;;;;;;26.04;88.53;95317.28;4993109;28;20031;-84
2023/09/07 07:53:14;;;;;;;7.43;6.82;;;;;;;26.15;85.98;95321.56;5028281;28;20025;-86
2023/09/07 07:55:40;;;;;;;10.20;6.82;;;;;;;26.33;84.46;95312.38;5010657;28;20044;-85
2023/09/07 07:58:09;;;;;;;7.72;6.95;;;;;;;26.53;83.58;95315.09;5009995;28;20022;-86
2023/09/07 08:00:38;;;;;;;8.85;7.53;;;;;;;26.15;85.47;95310.94;5010648;28;20032;-86
2023/09/07 08:03:08;;;;;;;7.78;7.15;;;;;;;26.40;84.64;95313.72;5009503;28;20063;-86
2023/09/07 08:05:34;;;;;;;7.00;6.50;;;;;;;26.36;82.26;95312.63;5010978;28;20124;-86
2023/09/07 08:08:00;;;;;;;7.82;7.00;;;;;;;26.81;82.70;95313.88;5027296;28;20033;-86
2023/09/07 08:10:26;;;;;;;6.95;6.28;;;;;;;26.64;77.85;95301.59;5028092;28;20021;-84
2023/09/07 08:12:55;;;;;;;9.20;5.78;;;;;;;26.75;72.57;95305.06;4993668;28;20032;-87
2023/09/07 08:15:22;;;;;;;6.55;5.80;;;;;;;27.23;74.77;95303.81;5009519;28;20060;-86
2023/09/07 08:17:48;;;;;;;7.70;4.43;;;;;;;26.03;64.34;95310.34;5010984;28;20449;-84
2023/09/07 08:20:15;;;;;;;6.88;4.55;;;;;;;25.57;66.32;95302.13;4992818;28;20041;-88
2023/09/07 08:22:42;;;;;;;8.98;4.65;;;;;;;26.60;63.03;95313.00;5011901;28;20022;-87
2023/09/07 08:25:08;;;;;;;7.05;4.25;;;;;;;26.58;59.71;95313.28;4996115;28;20621;-88
2023/09/07 08:27:34;;;;;;;7.28;4.85;;;;;;;25.94;62.70;95304.75;5028073;28;20049;-87
2023/09/07 08:29:59;;;;;;;10.10;4.40;;;;;;;26.86;59.37;95301.41;4992974;28;20111;-87
2023/09/07 08:32:25;;;;;;;5.13;4.63;;;;;;;27.16;60.21;95305.97;5011036;28;20032;-86
2023/09/07 08:34:50;;;;;;;7.65;4.95;;;;;;;26.60;63.14;95305.81;5010461;28;20029;-91
2023/09/07 08:37:16;;;;;;;5.65;4.30;;;;;;;27.14;60.10;95302.75;5010593;28;20639;-94
2023/09/07 08:39:41;;;;;;;10.07;4.75;;;;;;;26.31;61.81;95301.19;4995083;28;20129;-92
2023/09/07 08:42:07;;;;;;;9.07;5.07;;;;;;;24.79;67.59;95294.78;4992373;28;20025;-85
2023/09/07 08:44:35;;;;;;;5.20;4.78;;;;;;;25.24;67.83;95307.66;5010296;28;20045;-86
2023/09/07 08:47:03;;;;;;;5.75;5.25;;;;;;;25.87;64.35;95306.00;5009568;28;20079;-88
2023/09/07 08:49:29;;;;;;;5.38;4.80;;;;;;;26.39;64.06;95295.41;5011436;28;20486;-93
2023/09/07 08:51:59;;;;;;;5.97;4.60;;;;;;;26.59;63.75;95298.91;5010570;28;20106;-81
2023/09/07 08:54:25;;;;;;;6.03;5.43;;;;;;;26.11;64.48;95294.72;4993945;28;20025;-88
2023/09/07 08:56:50;;;;;;;6.80;4.90;;;;;;;26.67;62.01;95292.28;5010466;28;20056;-88
2023/09/07 08:59:16;;;;;;;7.80;5.30;;;;;;;26.15;63.86;95301.13;5008900;28;20056;-86
2023/09/07 09:01:41;;;;;;;6.53;5.43;;;;;;;26.24;63.68;95298.78;5027807;28;20029;-89
2023/09/07 09:04:07;;;;;;;8.27;5.28;;;;;;;25.68;69.89;95295.84;5009234;28;20034;-85
2023/09/07 09:06:33;;;;;;;7.15;5.72;;;;;;;25.91;67.33;95299.16;5011824;28;20025;-88
2023/09/07 09:08:58;;;;;;;6.90;6.13;;;;;;;25.18;70.65;95295.41;5009132;28;20033;-87
2023/09/07 09:11:25;;;;;;;6.80;6.18;;;;;;;26.12;66.18;95298.97;5010329;28;20495;-84
2023/09/07 09:13:52;;;;;;;7.57;5.22;;;;;;;26.34;66.75;95303.34;4992851;28;20022;-83
2023/09/07 09:16:18;;;;;;;5.97;5.45;;;;;;;27.16;68.16;95290.00;5009055;28;20109;-82
2023/09/07 09:18:56;;;;;;;6.75;5.35;;;;;;;27.32;62.92;95290.78;5009610;28;20068;-82
2023/09/07 09:21:23;;;;;;;5.10;4.70;;;;;;;27.26;61.71;95289.97;5008701;28;20018;-87
2023/09/07 09:23:50;;;;;;;8.75;5.15;;;;;;;27.52;60.38;95278.28;5010141;28;20099;-87
2023/09/07 09:26:16;;;;;;;8.35;5.35;;;;;;;27.11;61.61;95277.47;5008889;28;20025;-88
2023/09/07 09:28:42;;;;;;;7.03;5.85;;;;;;;26.68;60.72;95273.41;5010843;28;20083;-91
2023/09/07 09:31:12;;;;;;;6.43;5.28;;;;;;;27.19;61.60;95270.84;5010105;28;20052;-86
2023/09/07 09:33:38;;;;;;;5.68;5.05;;;;;;;27.72;60.44;95270.25;5027779;28;20103;-86
2023/09/07 09:36:03;;;;;;;5.95;5.35;;;;;;;27.47;60.96;95262.31;5011351;28;20032;-91
2023/09/07 09:38:31;;;;;;;8.05;5.07;;;;;;;28.65;58.42;95251.81;5009666;28;20520;-95
2023/09/07 09:40:58;;;;;;;7.15;5.05;;;;;;;26.75;61.73;95262.50;5010586;28;20403;-84
2023/09/07 09:43:25;;;;;;;5.50;5.00;;;;;;;26.93;62.43;95258.59;5009082;28;20529;-85
2023/09/07 09:45:52;;;;;;;8.02;5.60;;;;;;;28.26;63.96;95261.56;4993283;28;20029;-86
2023/09/07 09:48:19;;;;;;;5.72;5.18;;;;;;;27.14;60.59;95266.31;4992840;28;20472;-83
2023/09/07 09:50:46;;;;;;;6.88;4.93;;;;;;;27.03;61.84;95261.25;5009353;28;20091;-88
2023/09/07 09:53:15;;;;;;;10.98;5.63;;;;;;;27.36;62.14;95250.06;4996749;28;20036;-80
2023/09/07 09:55:41;;;;;;;6.10;5.50;;;;;;;27.09;63.40;95254.88;5012463;28;20029;-84
2023/09/07 09:58:06;;;;;;;5.90;5.00;;;;;;;26.30;62.28;95265.84;4997114;28;20037;-86
2023/09/07 10:00:37;;;;;;;6.25;4.90;;;;;;;26.45;60.76;95257.16;5011813;28;20022;-87
2023/09/07 10:03:07;;;;;;;8.43;4.30;;;;;;;26.67;59.62;95253.22;5013914;28;20033;-89
2023/09/07 10:05:34;;;;;;;6.63;4.65;;;;;;;27.70;60.13;95245.78;4995611;28;20034;-84
2023/09/07 10:08:09;;;;;;;5.18;4.82;;;;;;;28.22;61.66;95258.66;4996133;28;20410;-86
2023/09/07 10:10:36;;;;;;;6.72;4.78;;;;;;;27.75;62.81;95251.06;5012819;28;20068;-84
2023/09/07 10:13:02;;;;;;;6.38;5.15;;;;;;;27.11;62.82;95252.72;4995148;28;20154;-86
2023/09/07 10:15:29;;;;;;;6.97;4.75;;;;;;;27.38;63.33;95250.59;5013049;28;20033;-83
2023/09/07 10:18:15;;;;;;;4.82;4.38;;;;;;;28.15;62.42;95249.38;5011262;28;20025;-87
2023/09/07 10:20:55;;;;;;;7.90;4.57;;;;;;;27.48;62.64;95241.84;5013069;28;20140;-85
2023/09/07 10:23:22;;;;;;;7.15;5.15;;;;;;;27.43;63.37;95247.94;5013065;28;20037;-81
2023/09/07 10:25:49;;;;;;;9.50;4.43;;;;;;;27.24;64.70;95254.84;4994887;28;20108;-87
2023/09/07 10:28:22;;;;;;;4.95;4.55;;;;;;;26.93;65.91;95256.72;5012947;28;20040;-82
2023/09/07 10:31:04;;;;;;;5.47;4.78;;;;;;;26.61;68.72;95256.13;4994575;28;20105;-82
2023/09/07 10:33:31;;;;;;;5.18;4.68;;;;;;;26.45;70.70;95252.63;5012999;28;20028;-82
2023/09/07 10:35:57;;;;;;;5.30;4.90;;;;;;;26.51;70.41;95250.78;4994802;28;20037;-86
2023/09/07 10:38:23;;;;;;;5.22;4.72;;;;;;;26.61;70.83;95248.94;5011753;28;20084;-83
2023/09/07 10:40:57;;;;;;;5.25;4.85;;;;;;;26.42;72.63;95252.38;5012606;28;20044;-86
2023/09/07 10:43:23;;;;;;;5.70;4.93;;;;;;;26.44;72.38;95244.91;5011455;28;20565;-84
2023/09/07 10:45:48;;;;;;;4.65;4.30;;;;;;;25.91;71.13;95254.00;4995649;28;20112;-83
2023/09/07 10:48:14;;;;;;;5.63;5.13;;;;;;;26.08;73.12;95257.25;5010346;28;20025;-84
2023/09/07 10:50:46;;;;;;;9.80;4.80;;;;;;;26.02;73.70;95245.81;5029983;28;20017;-85
2023/09/07 10:53:13;;;;;;;5.45;4.68;;;;;;;25.85;75.86;95252.38;5010811;28;20602;-83
2023/09/07 10:55:39;;;;;;;5.50;4.57;;;;;;;25.68;76.60;95252.56;4995215;28;20044;-82
2023/09/07 10:58:05;;;;;;;5.60;4.78;;;;;;;25.55;77.77;95253.00;5029040;28;20061;-84
2023/09/07 11:00:30;;;;;;;6.53;4.25;;;;;;;25.32;77.10;95256.00;5010533;28;20584;-87
2023/09/07 11:02:56;;;;;;;5.60;4.55;;;;;;;25.68;78.85;95253.38;5011881;28;20454;-81
2023/09/07 11:05:21;;;;;;;5.90;4.72;;;;;;;25.53;78.21;95252.44;5010068;28;20065;-81
2023/09/07 11:07:47;;;;;;;6.38;4.63;;;;;;;25.05;78.54;95253.41;5029368;28;20407;-82
2023/09/07 11:10:12;;;;;;;5.57;4.07;;;;;;;24.95;79.47;95240.88;5010115;28;20037;-80
2023/09/07 11:12:39;;;;;;;5.13;4.68;;;;;;;24.83;80.51;95242.09;5011850;28;20535;-83
2023/09/07 11:15:05;;;;;;;10.13;4.90;;;;;;;24.83;82.66;95242.09;5010692;28;20026;-83